Time;durP1;ratioP1;P1;durP2;ratioP2;P2;SDS_P1;SDS_P2;PMS_P1;PMS_P2;Temp;Humidity;BMP_temperature;BMP_pressure;BME280_temperature;BME280_humidity;BME280_pressure;Samples;Min_cycle;Max_cycle;Signal;HPM_P1;HPM_P2
2024/04/18 00:01:53;;;;;;;0.98;0.80;;;;;;;8.93;100.00;94917.53;7397408;19;20023;-54
2024/04/18 00:04:18;;;;;;;3.92;0.80;;;;;;;8.83;100.00;94922.44;7396406;19;20520;-59
2024/04/18 00:06:44;;;;;;;1.25;0.82;;;;;;;8.90;100.00;94920.31;7397136;19;20009;-57
2024/04/18 00:09:09;;;;;;;2.17;1.10;;;;;;;8.53;100.00;94899.75;7396854;19;19999;-57
2024/04/18 00:11:35;;;;;;;2.58;0.82;;;;;;;8.54;100.00;94891.03;7397142;19;20003;-54
2024/04/18 00:14:01;;;;;;;2.05;0.70;;;;;;;8.16;100.00;94886.16;7396583;19;20074;-53
2024/04/18 00:16:26;;;;;;;0.80;0.70;;;;;;;8.28;100.00;94880.25;7396569;19;20044;-53
2024/04/18 00:18:52;;;;;;;2.17;0.80;;;;;;;8.24;100.00;94886.56;7394958;19;19994;-56
2024/04/18 00:21:17;;;;;;;1.85;0.80;;;;;;;8.20;100.00;94906.75;7396486;19;19991;-54
2024/04/18 00:23:43;;;;;;;1.23;0.70;;;;;;;8.61;100.00;94901.13;7396777;19;19994;-57
2024/04/18 00:26:09;;;;;;;4.82;1.15;;;;;;;8.58;100.00;94883.91;7396258;19;20005;-53
2024/04/18 00:28:35;;;;;;;3.28;1.08;;;;;;;8.41;100.00;94903.03;7396168;19;20101;-56
2024/04/18 00:31:00;;;;;;;3.35;1.10;;;;;;;8.38;100.00;94914.47;7396126;19;20011;-58
2024/04/18 00:33:26;;;;;;;5.40;1.10;;;;;;;8.27;100.00;94906.41;7396456;19;20055;-55
2024/04/18 00:35:51;;;;;;;3.42;1.10;;;;;;;8.33;100.00;94927.75;7395934;19;20472;-55
2024/04/18 00:38:17;;;;;;;3.33;1.27;;;;;;;8.36;100.00;94931.94;7394718;19;19995;-57
2024/04/18 00:40:43;;;;;;;3.63;0.90;;;;;;;8.31;100.00;94907.94;7396293;19;20001;-58
2024/04/18 00:43:09;;;;;;;3.53;0.90;;;;;;;8.08;100.00;94886.59;7395805;19;20010;-58
2024/04/18 00:45:35;;;;;;;1.27;0.85;;;;;;;8.11;100.00;94872.53;7395702;19;20062;-58
2024/04/18 00:48:01;;;;;;;0.90;0.90;;;;;;;8.16;100.00;94873.97;7395504;19;20087;-57
2024/04/18 00:50:27;;;;;;;1.08;0.70;;;;;;;8.05;100.00;94852.88;7395052;19;19994;-57
2024/04/18 00:52:53;;;;;;;1.95;0.90;;;;;;;8.14;100.00;94859.34;7395831;19;20001;-57
2024/04/18 00:55:18;;;;;;;5.22;1.00;;;;;;;8.24;100.00;94857.91;7395461;19;20011;-55
2024/04/18 00:57:44;;;;;;;4.32;0.88;;;;;;;7.70;100.00;94843.47;7394559;19;20000;-58
2024/04/18 01:00:10;;;;;;;4.25;0.80;;;;;;;7.52;100.00;94832.28;7395314;19;20010;-57
2024/04/18 01:02:36;;;;;;;0.95;0.60;;;;;;;7.62;100.00;94824.84;7395167;19;20013;-56
2024/04/18 01:05:02;;;;;;;1.17;0.77;;;;;;;7.69;100.00;94794.94;7394133;19;20351;-58
2024/04/18 01:07:28;;;;;;;1.77;0.73;;;;;;;7.75;100.00;94796.38;7395041;19;20037;-56
2024/04/18 01:09:53;;;;;;;0.95;0.52;;;;;;;7.67;100.00;94800.22;7395382;19;20027;-53
2024/04/18 01:12:19;;;;;;;1.02;0.82;;;;;;;7.47;100.00;94803.91;7395085;19;19994;-60
2024/04/18 01:14:44;;;;;;;2.42;0.85;;;;;;;7.45;100.00;94826.56;7395220;19;20003;-57
2024/04/18 01:17:10;;;;;;;3.50;0.60;;;;;;;7.43;100.00;94867.41;7394328;19;20002;-59
2024/04/18 01:19:36;;;;;;;1.15;0.70;;;;;;;7.54;100.00;94900.69;7394780;19;19999;-58
2024/04/18 01:22:02;;;;;;;0.75;0.70;;;;;;;7.91;100.00;94895.28;7394701;19;19995;-60
2024/04/18 01:24:28;;;;;;;0.70;0.70;;;;;;;7.79;100.00;94827.34;7395005;19;20070;-55
2024/04/18 01:26:54;;;;;;;1.95;1.05;;;;;;;7.65;100.00;94754.41;7394707;19;20509;-59
2024/04/18 01:29:20;;;;;;;0.73;0.65;;;;;;;7.63;100.00;94740.63;7394636;19;20023;-58
2024/04/18 01:31:45;;;;;;;2.03;0.93;;;;;;;7.69;100.00;94756.75;7394459;19;20002;-59
2024/04/18 01:34:11;;;;;;;0.80;0.80;;;;;;;7.76;100.00;94769.41;7394287;19;19998;-56
2024/04/18 01:36:36;;;;;;;0.77;0.70;;;;;;;7.46;100.00;94784.00;7394235;19;20007;-57
2024/04/18 01:39:02;;;;;;;0.60;0.60;;;;;;;7.35;100.00;94796.75;7392222;19;19995;-57
2024/04/18 01:41:27;;;;;;;0.73;0.68;;;;;;;7.33;100.00;94834.09;7394200;19;20023;-55
2024/04/18 01:43:53;;;;;;;1.38;0.80;;;;;;;7.42;100.00;94865.75;7394312;19;20472;-59
2024/04/18 01:46:19;;;;;;;1.98;0.60;;;;;;;7.43;100.00;94886.47;7393966;19;20010;-59
2024/04/18 01:48:46;;;;;;;1.70;0.60;;;;;;;7.73;100.00;94884.13;7393905;19;20003;-61
2024/04/18 01:51:12;;;;;;;1.17;0.80;;;;;;;7.69;100.00;94841.78;7394236;19;20010;-56
2024/04/18 01:53:38;;;;;;;0.80;0.80;;;;;;;7.63;100.00;94818.69;7393906;19;19999;-57
2024/04/18 01:56:04;;;;;;;0.75;0.70;;;;;;;7.54;100.00;94802.66;7393717;19;20461;-57
2024/04/18 01:58:29;;;;;;;0.77;0.77;;;;;;;7.55;100.00;94803.50;7392452;19;20003;-56
2024/04/18 02:00:55;;;;;;;3.70;0.90;;;;;;;7.52;100.00;94816.66;7395894;19;20007;-58
2024/04/18 02:03:20;;;;;;;1.50;0.80;;;;;;;7.48;100.00;94835.97;7401066;19;20011;-57
2024/04/18 02:05:46;;;;;;;0.77;0.70;;;;;;;7.65;100.00;94850.69;7399041;19;19999;-58
2024/04/18 02:08:11;;;;;;;1.23;0.90;;;;;;;7.76;100.00;94873.53;7400812;19;20401;-56
2024/04/18 02:10:37;;;;;;;2.25;0.90;;;;;;;7.84;100.00;94895.66;7400772;19;19995;-58
2024/04/18 02:13:03;;;;;;;0.68;0.60;;;;;;;7.68;100.00;94889.56;7401124;19;20504;-60
2024/04/18 02:15:29;;;;;;;1.17;0.70;;;;;;;7.54;100.00;94887.69;7401002;19;19999;-58
2024/04/18 02:17:55;;;;;;;1.88;0.80;;;;;;;7.66;100.00;94896.59;7399244;19;19994;-59
2024/04/18 02:20:21;;;;;;;0.88;0.68;;;;;;;7.67;100.00;94891.31;7400886;19;20010;-60
2024/04/18 02:22:47;;;;;;;2.85;0.80;;;;;;;7.63;100.00;94871.59;7400357;19;20322;-60
2024/04/18 02:25:13;;;;;;;0.50;0.50;;;;;;;7.51;100.00;94875.69;7400310;19;20002;-60
2024/04/18 02:27:41;;;;;;;1.67;0.75;;;;;;;7.69;100.00;94873.88;7400219;19;19991;-56
2024/04/18 02:30:09;;;;;;;1.20;0.80;;;;;;;7.28;100.00;94866.44;7400277;19;20461;-55
2024/04/18 02:32:35;;;;;;;2.15;0.70;;;;;;;7.15;100.00;94872.31;7400096;19;20014;-56
2024/04/18 02:35:01;;;;;;;0.70;0.70;;;;;;;7.19;100.00;94873.81;7400064;19;20027;-57
2024/04/18 02:37:27;;;;;;;0.70;0.70;;;;;;;7.26;100.00;94876.97;7399222;19;20006;-58
2024/04/18 02:39:53;;;;;;;0.90;0.60;;;;;;;7.11;100.00;94886.38;7399844;19;20002;-59
2024/04/18 02:42:18;;;;;;;0.63;0.50;;;;;;;6.95;100.00;94897.53;7400199;19;20003;-60
2024/04/18 02:44:44;;;;;;;0.60;0.60;;;;;;;6.98;100.00;94903.53;7400118;19;20352;-56
2024/04/18 02:47:10;;;;;;;1.40;0.60;;;;;;;6.99;100.00;94895.66;7400045;19;20010;-55
2024/04/18 02:49:36;;;;;;;0.65;0.65;;;;;;;6.58;100.00;94888.97;7399662;19;20390;-58
2024/04/18 02:52:03;;;;;;;0.85;0.80;;;;;;;6.65;100.00;94894.72;7399818;19;20006;-57
2024/04/18 02:54:29;;;;;;;2.55;0.68;;;;;;;6.66;100.00;94889.44;7399496;19;19999;-59
2024/04/18 02:56:54;;;;;;;0.80;0.80;;;;;;;6.40;100.00;94880.28;7398985;19;19994;-59
2024/04/18 02:59:20;;;;;;;1.33;0.90;;;;;;;6.53;100.00;94886.59;7399228;19;20066;-61
2024/04/18 03:01:46;;;;;;;1.25;1.05;;;;;;;6.53;100.00;94896.97;7399118;19;19991;-58
2024/04/18 03:04:11;;;;;;;1.65;0.90;;;;;;;6.37;100.00;94896.88;7398379;19;20017;-57
2024/04/18 03:06:37;;;;;;;1.10;1.00;;;;;;;6.42;100.00;94907.88;7399040;19;20010;-57
2024/04/18 03:09:02;;;;;;;1.30;1.10;;;;;;;6.39;100.00;94902.00;7399261;19;20048;-55
2024/04/18 03:11:28;;;;;;;2.05;1.08;;;;;;;6.32;100.00;94896.22;7397967;19;20474;-60
2024/04/18 03:13:54;;;;;;;2.35;1.50;;;;;;;6.34;100.00;94893.56;7399098;19;20066;-60
2024/04/18 03:16:19;;;;;;;1.50;1.40;;;;;;;6.18;100.00;94882.16;7398639;19;20473;-57
2024/04/18 03:18:45;;;;;;;1.75;1.45;;;;;;;6.08;100.00;94883.50;7396622;19;20019;-59
2024/04/18 03:21:11;;;;;;;2.30;1.63;;;;;;;5.90;100.00;94891.19;7398831;19;20027;-60
2024/04/18 03:23:40;;;;;;;1.83;1.73;;;;;;;5.60;100.00;94915.00;7398320;19;20468;-59
2024/04/18 03:26:06;;;;;;;1.80;1.70;;;;;;;5.41;100.00;94913.25;7398297;19;20016;-60
2024/04/18 03:28:31;;;;;;;1.90;1.70;;;;;;;5.40;100.00;94918.50;7398275;19;20001;-60
2024/04/18 03:30:57;;;;;;;1.52;1.42;;;;;;;5.34;100.00;94906.63;7398156;19;19991;-58
2024/04/18 03:33:22;;;;;;;2.22;1.65;;;;;;;5.12;100.00;94911.91;7398039;19;20014;-55
2024/04/18 03:35:48;;;;;;;4.80;2.00;;;;;;;5.35;100.00;94920.44;7397941;19;20003;-55
2024/04/18 03:38:14;;;;;;;3.65;1.95;;;;;;;5.24;100.00;94926.91;7396539;19;19994;-56
2024/04/18 03:40:40;;;;;;;2.65;1.70;;;;;;;5.46;100.00;94920.81;7398187;19;20347;-51
2024/04/18 03:43:06;;;;;;;1.95;1.85;;;;;;;5.46;100.00;94922.56;7397851;19;19999;-59
2024/04/18 03:45:32;;;;;;;2.08;1.70;;;;;;;5.33;100.00;94930.03;7397700;19;20507;-58
2024/04/18 03:47:58;;;;;;;2.95;1.60;;;;;;;-148.23;100.00;56998.88;7397661;19;19998;-56
2024/04/18 03:50:23;;;;;;;6.30;1.80;;;;;;;5.14;100.00;94936.00;7397440;19;19998;-58
2024/04/18 03:52:49;;;;;;;3.78;1.67;;;;;;;4.68;100.00;94926.63;7397416;19;19999;-60
2024/04/18 03:55:15;;;;;;;3.25;1.80;;;;;;;4.96;100.00;94935.03;7397302;19;20009;-55
2024/04/18 03:57:40;;;;;;;1.30;1.20;;;;;;;5.16;100.00;94944.56;7396447;19;20450;-57
2024/04/18 04:00:07;;;;;;;1.30;1.20;;;;;;;5.17;100.00;94936.72;7397676;19;20003;-55
2024/04/18 04:02:33;;;;;;;1.33;1.23;;;;;;;5.15;100.00;94933.34;7397461;19;20415;-59
2024/04/18 04:04:59;;;;;;;1.73;1.63;;;;;;;5.36;100.00;94932.50;7395842;19;20010;-59
2024/04/18 04:07:25;;;;;;;1.40;1.30;;;;;;;5.38;100.00;94934.13;7397294;19;20006;-58
2024/04/18 04:09:51;;;;;;;1.27;1.17;;;;;;;6.70;100.00;94924.75;7396782;19;19995;-60
2024/04/18 04:12:16;;;;;;;2.33;1.20;;;;;;;7.73;94.60;94918.78;7396723;19;19994;-55
2024/04/18 04:14:42;;;;;;;1.65;1.10;;;;;;;7.46;91.06;94917.53;7396716;19;19991;-55
2024/04/18 04:17:11;;;;;;;1.10;1.10;;;;;;;7.15;93.75;94913.06;7396347;19;20015;-58
2024/04/18 04:19:36;;;;;;;0.90;0.90;;;;;;;8.08;89.52;94915.22;7396635;19;20011;-61
2024/04/18 04:22:02;;;;;;;1.00;0.98;;;;;;;8.64;85.41;94916.59;7396468;19;19995;-60
2024/04/18 04:24:28;;;;;;;2.30;1.00;;;;;;;8.58;81.26;94918.59;7394488;19;20022;-57
2024/04/18 04:26:53;;;;;;;2.10;0.88;;;;;;;9.12;78.33;94924.28;7396359;19;20062;-61
2024/04/18 04:29:20;;;;;;;0.80;0.80;;;;;;;9.30;78.28;94929.38;7396283;19;20070;-60
2024/04/18 04:31:46;;;;;;;1.55;0.82;;;;;;;9.84;76.00;94930.53;7396620;19;20007;-56
2024/04/18 04:34:12;;;;;;;1.20;1.00;;;;;;;10.64;72.43;94931.75;7396608;19;20406;-58
2024/04/18 04:36:38;;;;;;;4.82;1.10;;;;;;;10.81;71.56;94943.75;7396175;19;20019;-57
2024/04/18 04:39:03;;;;;;;1.23;1.13;;;;;;;11.99;69.96;94952.63;7394480;19;19999;-59
2024/04/18 04:41:29;;;;;;;0.90;0.90;;;;;;;11.67;70.15;94968.75;7396220;19;20003;-53
2024/04/18 04:43:54;;;;;;;1.08;1.00;;;;;;;9.59;79.93;94958.97;7396219;19;20356;-57
2024/04/18 04:46:20;;;;;;;1.63;1.08;;;;;;;8.57;89.95;94948.22;7395721;19;20453;-57
2024/04/18 04:48:46;;;;;;;1.83;1.15;;;;;;;9.35;88.48;94961.25;7395615;19;20011;-61
2024/04/18 04:51:14;;;;;;;1.15;1.10;;;;;;;10.50;82.58;94961.38;7395676;19;19999;-59
2024/04/18 04:53:40;;;;;;;2.00;1.80;;;;;;;11.32;74.49;94967.56;7395930;19;20056;-59
2024/04/18 04:56:07;;;;;;;1.80;1.60;;;;;;;11.96;72.38;94977.25;7395476;19;20384;-61
2024/04/18 04:58:33;;;;;;;2.03;1.60;;;;;;;12.47;67.98;94985.19;7394021;19;20010;-60
2024/04/18 05:00:58;;;;;;;2.30;1.58;;;;;;;12.84;67.18;94986.97;7395423;19;20002;-62
2024/04/18 05:03:24;;;;;;;1.77;1.35;;;;;;;12.41;67.82;94996.97;7395251;19;20080;-57
2024/04/18 05:05:50;;;;;;;3.08;1.40;;;;;;;13.42;64.76;95001.22;7393512;19;20019;-61
2024/04/18 05:08:17;;;;;;;1.40;1.27;;;;;;;13.46;66.50;95000.03;7395187;19;20010;-53
2024/04/18 05:10:44;;;;;;;1.33;1.20;;;;;;;12.19;66.42;94998.44;7395465;19;20003;-56
2024/04/18 05:13:14;;;;;;;4.68;1.67;;;;;;;11.02;74.71;95000.03;7394904;19;20359;-57
2024/04/18 05:15:40;;;;;;;1.70;1.30;;;;;;;12.54;68.53;95004.78;7394958;19;20326;-60
2024/04/18 05:18:09;;;;;;;4.20;1.65;;;;;;;13.68;62.39;95008.97;7393812;19;20006;-60
2024/04/18 05:20:37;;;;;;;1.88;1.48;;;;;;;14.68;60.02;95006.66;7394721;19;20003;-58
2024/04/18 05:23:04;;;;;;;1.40;1.30;;;;;;;16.41;52.73;95014.59;7394624;19;20007;-57
2024/04/18 05:25:30;;;;;;;1.48;1.38;;;;;;;17.64;47.79;95020.75;7395078;19;20010;-60
2024/04/18 05:28:04;;;;;;;1.40;1.30;;;;;;;18.42;47.29;95040.13;7394660;19;20487;-55
2024/04/18 05:33:15;;;;;;;1.40;1.30;;;;;;;12.52;63.07;95009.31;7394691;19;20013;-60
2024/04/18 05:35:41;;;;;;;1.70;1.48;;;;;;;11.47;69.49;95013.66;7398838;19;20461;-58
2024/04/18 05:38:06;;;;;;;2.80;1.30;;;;;;;11.61;66.66;95007.50;7400627;19;20008;-60
2024/04/18 05:40:32;;;;;;;1.27;1.17;;;;;;;10.91;72.60;95004.16;7402254;19;20493;-56
2024/04/18 05:42:58;;;;;;;1.50;1.40;;;;;;;10.02;80.91;95008.72;7401621;19;20007;-59
2024/04/18 05:45:23;;;;;;;1.73;1.40;;;;;;;10.29;71.89;95013.22;7401555;19;19995;-58
2024/04/18 05:47:49;;;;;;;1.60;1.50;;;;;;;9.61;69.41;95024.97;7402027;19;20007;-63
2024/04/18 05:50:14;;;;;;;1.63;1.52;;;;;;;10.30;70.71;95026.16;7401915;19;20521;-58
2024/04/18 05:52:40;;;;;;;1.70;1.55;;;;;;;9.68;78.27;95027.22;7401388;19;20011;-62
2024/04/18 05:55:06;;;;;;;2.30;2.00;;;;;;;9.41;76.92;95033.97;7401332;19;20010;-57
2024/04/18 05:57:31;;;;;;;2.60;1.58;;;;;;;8.99;74.51;95031.09;7400244;19;19995;-55
2024/04/18 05:59:57;;;;;;;2.33;1.70;;;;;;;9.61;78.81;95029.38;7401152;19;20010;-54
2024/04/18 06:02:22;;;;;;;1.90;1.63;;;;;;;9.80;73.90;95036.97;7401205;19;20023;-57
2024/04/18 06:04:48;;;;;;;1.60;1.50;;;;;;;9.78;73.88;95044.03;7399726;19;20473;-55
2024/04/18 06:07:14;;;;;;;1.60;1.50;;;;;;;8.44;73.88;95031.41;7399437;19;19999;-58
2024/04/18 06:09:39;;;;;;;1.80;1.70;;;;;;;9.28;77.71;95036.44;7400841;19;20007;-60
2024/04/18 06:12:05;;;;;;;1.75;1.65;;;;;;;8.83;80.51;95031.09;7399431;19;20512;-59
2024/04/18 06:14:31;;;;;;;4.13;1.63;;;;;;;8.69;81.05;95030.09;7400583;19;20010;-56
2024/04/18 06:16:56;;;;;;;4.05;1.70;;;;;;;8.78;86.48;95025.28;7400442;19;20066;-58
2024/04/18 06:19:22;;;;;;;1.95;1.85;;;;;;;9.19;82.60;95036.97;7400628;19;20070;-61
2024/04/18 06:21:48;;;;;;;2.45;1.85;;;;;;;9.14;77.66;95034.59;7400489;19;19995;-61
2024/04/18 06:24:13;;;;;;;2.22;1.80;;;;;;;8.75;82.42;95036.75;7400387;19;20006;-59
2024/04/18 06:26:39;;;;;;;6.65;1.92;;;;;;;9.07;84.58;95041.97;7400247;19;20003;-61
2024/04/18 06:29:04;;;;;;;2.25;1.63;;;;;;;8.67;82.65;95051.97;7400272;19;20002;-53
2024/04/18 06:31:30;;;;;;;2.28;1.52;;;;;;;9.22;78.33;95057.66;7400183;19;19999;-56
2024/04/18 06:33:56;;;;;;;1.75;1.60;;;;;;;9.35;83.72;95063.03;7400412;19;20484;-61
2024/04/18 06:36:22;;;;;;;1.40;1.30;;;;;;;9.45;77.60;95079.84;7400412;19;20006;-57
2024/04/18 06:38:47;;;;;;;2.30;1.55;;;;;;;9.58;78.98;95076.53;7396410;19;20538;-61
2024/04/18 06:41:13;;;;;;;2.22;1.50;;;;;;;9.73;76.78;95080.03;7399574;19;20005;-55
2024/04/18 06:43:38;;;;;;;1.60;1.50;;;;;;;9.00;73.03;95082.31;7399465;19;19998;-55
2024/04/18 06:46:04;;;;;;;1.88;1.70;;;;;;;10.09;73.50;95089.22;7398400;19;20019;-60
2024/04/18 06:48:29;;;;;;;2.95;1.70;;;;;;;10.30;79.31;95091.50;7398978;19;19995;-60
2024/04/18 06:50:55;;;;;;;1.45;1.35;;;;;;;10.47;78.52;95095.75;7399511;19;20022;-57
2024/04/18 06:53:21;;;;;;;1.88;1.60;;;;;;;10.28;72.22;95108.22;7399677;19;20011;-61
2024/04/18 06:55:47;;;;;;;3.33;1.55;;;;;;;10.60;76.76;95101.06;7398773;19;21216;-61
2024/04/18 06:58:13;;;;;;;1.95;1.70;;;;;;;10.38;79.11;95114.56;7397500;19;20011;-57
2024/04/18 07:00:38;;;;;;;14.75;7.80;;;;;;;9.98;78.03;95109.94;7399162;19;19994;-60
2024/04/18 07:03:08;;;;;;;16.75;6.90;;;;;;;9.85;79.34;95107.22;7399464;19;20003;-58
2024/04/18 07:05:33;;;;;;;1.95;1.70;;;;;;;10.13;73.33;95120.41;7397144;19;20105;-63
2024/04/18 07:07:59;;;;;;;2.63;2.13;;;;;;;10.93;75.70;95117.38;7398901;19;20067;-60
2024/04/18 07:10:25;;;;;;;1.85;1.63;;;;;;;10.90;70.33;95119.38;7398964;19;20028;-58
2024/04/18 07:12:50;;;;;;;1.38;1.27;;;;;;;10.43;69.04;95122.97;7398739;19;20030;-58
2024/04/18 07:15:16;;;;;;;4.50;2.35;;;;;;;10.78;68.23;95120.97;7398589;19;19999;-58
2024/04/18 07:17:43;;;;;;;2.17;1.70;;;;;;;10.11;69.59;95123.09;7396732;19;20005;-59
2024/04/18 07:20:09;;;;;;;1.73;1.50;;;;;;;10.31;66.62;95145.47;7398928;19;20347;-62
2024/04/18 07:22:37;;;;;;;2.70;2.03;;;;;;;10.18;70.78;95141.91;7398472;19;20002;-59
2024/04/18 07:25:05;;;;;;;3.65;2.30;;;;;;;10.13;72.96;95142.16;7398752;19;20009;-59
2024/04/18 07:27:31;;;;;;;2.03;1.77;;;;;;;10.08;69.00;95144.19;7398312;19;20033;-59
2024/04/18 07:29:56;;;;;;;3.97;1.92;;;;;;;10.34;78.89;95147.06;7398274;19;20003;-58
2024/04/18 07:32:22;;;;;;;2.20;1.33;;;;;;;10.42;73.61;95150.03;7398512;19;20009;-59
2024/04/18 07:34:48;;;;;;;2.95;1.55;;;;;;;10.54;71.41;95151.09;7398436;19;20473;-61
2024/04/18 07:37:13;;;;;;;7.90;2.97;;;;;;;10.40;72.70;95146.69;7397529;19;20319;-57
2024/04/18 07:39:40;;;;;;;5.05;2.42;;;;;;;10.59;77.08;95146.47;7397915;19;20018;-61
2024/04/18 07:42:06;;;;;;;2.88;1.58;;;;;;;10.43;72.72;95145.66;7397804;19;20016;-58
2024/04/18 07:44:31;;;;;;;3.95;2.03;;;;;;;10.77;66.93;95155.91;7397781;19;20002;-57
2024/04/18 07:46:57;;;;;;;3.28;1.60;;;;;;;11.17;67.54;95147.38;7397685;19;20007;-55
2024/04/18 07:49:23;;;;;;;3.00;1.40;;;;;;;11.27;66.10;95156.31;7397895;19;20003;-60
2024/04/18 07:51:49;;;;;;;2.03;1.20;;;;;;;11.33;62.31;95162.94;7398087;19;20007;-56
2024/04/18 07:54:15;;;;;;;1.60;1.50;;;;;;;11.41;63.63;95152.81;7397830;19;20460;-58
2024/04/18 07:56:41;;;;;;;1.98;1.20;;;;;;;11.40;63.91;95159.00;7397712;19;20013;-60
2024/04/18 07:59:07;;;;;;;1.60;1.48;;;;;;;10.65;63.21;95170.56;7392884;19;20337;-58
2024/04/18 08:01:35;;;;;;;3.42;1.50;;;;;;;11.33;64.87;95166.41;7397632;19;20006;-60
2024/04/18 08:04:01;;;;;;;2.75;1.45;;;;;;;11.58;63.00;95175.31;7396723;19;20513;-62
2024/04/18 08:06:27;;;;;;;2.13;1.30;;;;;;;11.48;63.77;95177.69;7397437;19;20033;-59
2024/04/18 08:08:52;;;;;;;4.53;1.33;;;;;;;11.70;64.56;95165.81;7396957;19;20461;-60
2024/04/18 08:11:18;;;;;;;1.92;1.25;;;;;;;11.88;64.25;95170.81;7397298;19;20003;-59
2024/04/18 08:13:43;;;;;;;1.77;1.25;;;;;;;11.93;62.96;95173.13;7397164;19;20493;-60
2024/04/18 08:16:09;;;;;;;1.38;1.20;;;;;;;11.64;62.71;95184.56;7396659;19;20002;-60
2024/04/18 08:18:35;;;;;;;2.25;1.20;;;;;;;11.97;59.23;95187.72;7395683;19;20015;-58
2024/04/18 08:21:00;;;;;;;2.38;1.17;;;;;;;12.09;59.87;95191.34;7396619;19;20003;-61
2024/04/18 08:23:26;;;;;;;2.38;1.50;;;;;;;12.26;60.29;95185.81;7396465;19;20002;-57
2024/04/18 08:25:52;;;;;;;2.70;1.30;;;;;;;12.18;57.81;95192.50;7396359;19;20005;-55
2024/04/18 08:28:17;;;;;;;5.30;1.30;;;;;;;12.26;62.52;95182.38;7396277;19;20011;-58
2024/04/18 08:30:44;;;;;;;1.63;1.20;;;;;;;12.37;56.29;95184.25;7396163;19;20074;-55
2024/04/18 08:33:10;;;;;;;3.58;1.02;;;;;;;12.40;61.27;95188.47;7396525;19;20062;-58
2024/04/18 08:35:35;;;;;;;1.73;1.33;;;;;;;12.40;60.18;95194.53;7396569;19;20478;-59
2024/04/18 08:38:01;;;;;;;1.70;1.60;;;;;;;12.14;59.76;95197.13;7395108;19;20357;-59
2024/04/18 08:40:27;;;;;;;5.03;2.40;;;;;;;11.85;64.20;95195.44;7396263;19;20014;-59
2024/04/18 08:42:53;;;;;;;3.63;1.55;;;;;;;11.90;62.86;95208.25;7395793;19;20053;-59
2024/04/18 08:45:24;;;;;;;1.27;1.08;;;;;;;11.97;63.20;95206.06;7395739;19;19991;-59
2024/04/18 08:47:51;;;;;;;3.28;1.27;;;;;;;11.46;63.41;95200.50;7395731;19;20477;-61
2024/04/18 08:50:20;;;;;;;1.40;1.30;;;;;;;11.58;62.60;95211.97;7395519;19;19999;-55
2024/04/18 08:52:46;;;;;;;1.55;1.45;;;;;;;11.47;67.36;95206.59;7395505;19;20487;-60
2024/04/18 08:55:11;;;;;;;3.28;1.67;;;;;;;11.84;63.64;95213.88;7395429;19;19995;-59
2024/04/18 08:57:48;;;;;;;1.33;1.17;;;;;;;11.74;63.75;95218.88;7394935;19;19995;-63
2024/04/18 09:00:13;;;;;;;2.78;1.40;;;;;;;11.89;59.38;95219.63;7395360;19;20032;-60
2024/04/18 09:02:39;;;;;;;2.13;1.35;;;;;;;11.81;60.78;95225.41;7395786;19;20003;-55
2024/04/18 09:05:05;;;;;;;1.30;1.20;;;;;;;11.84;57.66;95237.44;7394031;19;20007;-57
2024/04/18 09:07:31;;;;;;;3.05;1.50;;;;;;;11.26;63.36;95225.31;7395086;19;20383;-61
2024/04/18 09:10:07;;;;;;;6.57;1.52;;;;;;;11.25;66.36;95221.00;7394046;19;20095;-54
2024/04/18 09:12:35;;;;;;;1.40;1.30;;;;;;;11.31;69.36;95210.16;7395142;19;20008;-58
2024/04/18 09:15:01;;;;;;;2.67;1.50;;;;;;;11.07;70.18;95207.25;7394923;19;20014;-58
2024/04/18 09:17:27;;;;;;;2.03;1.35;;;;;;;10.92;67.71;95212.50;7394497;19;19995;-55
2024/04/18 09:19:54;;;;;;;2.13;1.40;;;;;;;11.49;74.28;95220.41;7394692;19;20465;-55
2024/04/18 09:22:20;;;;;;;1.65;1.45;;;;;;;11.21;71.33;95225.59;7394807;19;20461;-56
2024/04/18 09:24:46;;;;;;;1.80;1.48;;;;;;;12.01;73.36;95215.38;7394551;19;20074;-59
2024/04/18 09:27:15;;;;;;;1.70;1.38;;;;;;;11.22;76.23;95213.34;7394650;19;19998;-56
2024/04/18 09:29:41;;;;;;;2.22;1.50;;;;;;;12.34;72.30;95218.56;7395004;19;20366;-59
2024/04/18 09:32:08;;;;;;;2.72;1.67;;;;;;;12.22;71.00;95225.47;7394540;19;20009;-57
2024/04/18 09:34:38;;;;;;;1.48;1.13;;;;;;;11.97;66.94;95234.88;7394416;19;20002;-60
2024/04/18 09:37:05;;;;;;;2.55;1.25;;;;;;;11.50;76.42;95224.72;7394279;19;19998;-56
2024/04/18 09:39:32;;;;;;;1.83;1.60;;;;;;;11.91;74.03;95228.25;7394216;19;20027;-58
2024/04/18 09:42:47;;;;;;;2.53;1.38;;;;;;;12.09;73.57;95243.75;7394090;19;20051;-56
2024/04/18 09:45:17;;;;;;;2.15;1.17;;;;;;;11.95;72.18;95244.63;7390968;19;20518;-57
2024/04/18 09:47:44;;;;;;;1.42;1.10;;;;;;;11.80;71.82;95243.84;7393798;19;20469;-58
2024/04/18 09:50:12;;;;;;;3.15;1.15;;;;;;;11.88;74.74;95234.53;7394031;19;20491;-56
2024/04/18 09:52:39;;;;;;;1.52;1.20;;;;;;;12.05;64.55;95243.09;7393841;19;19999;-58
2024/04/18 09:55:07;;;;;;;3.30;1.42;;;;;;;12.19;62.67;95249.25;7393891;19;20489;-58
2024/04/18 09:57:34;;;;;;;1.98;1.35;;;;;;;12.33;65.57;95250.97;7393396;19;19994;-59
2024/04/18 10:00:01;;;;;;;2.67;1.58;;;;;;;13.34;62.84;95257.31;7393769;19;19991;-59
2024/04/18 10:02:29;;;;;;;4.47;1.83;;;;;;;12.73;70.21;95239.59;7393918;19;20004;-56
2024/04/18 10:04:55;;;;;;;1.35;0.90;;;;;;;13.94;65.75;95245.38;7392986;19;20011;-58
2024/04/18 10:07:24;;;;;;;2.30;1.52;;;;;;;14.16;63.18;95242.00;7393984;19;20468;-59
2024/04/18 10:09:51;;;;;;;2.67;1.17;;;;;;;14.08;58.82;95255.72;7393880;19;20022;-60
2024/04/18 10:12:18;;;;;;;1.20;1.10;;;;;;;13.54;60.12;95249.88;7393466;19;20476;-60
2024/04/18 10:14:44;;;;;;;1.70;1.45;;;;;;;13.81;61.43;95246.22;7394000;19;20003;-56
2024/04/18 10:17:29;;;;;;;4.18;1.25;;;;;;;12.54;65.52;95247.84;7393124;19;19998;-56
2024/04/18 10:19:59;;;;;;;1.80;1.27;;;;;;;12.72;65.14;95248.41;7393329;19;20014;-54
2024/04/18 10:22:25;;;;;;;2.00;1.43;;;;;;;12.79;67.02;95246.22;7397157;19;20017;-57
2024/04/18 10:24:51;;;;;;;1.20;1.10;;;;;;;14.37;68.49;95246.63;7400552;19;20473;-58
2024/04/18 10:27:20;;;;;;;1.10;1.10;;;;;;;15.08;60.55;95253.66;7400464;19;20393;-58
2024/04/18 10:29:56;;;;;;;1.67;1.38;;;;;;;12.62;61.03;95246.41;7400400;19;20500;-59
2024/04/18 10:32:32;;;;;;;1.63;1.38;;;;;;;12.19;65.06;95239.59;7400160;19;19999;-56
2024/04/18 10:34:59;;;;;;;1.40;1.30;;;;;;;12.94;66.41;95247.78;7400637;19;20017;-58
2024/04/18 10:37:24;;;;;;;2.13;1.92;;;;;;;12.94;64.12;95252.22;7399476;19;20495;-58
2024/04/18 10:39:52;;;;;;;2.20;1.35;;;;;;;13.12;68.49;95248.31;7400100;19;20014;-58
2024/04/18 10:42:22;;;;;;;1.30;1.20;;;;;;;12.95;67.92;95238.16;7399974;19;20009;-63
2024/04/18 10:44:49;;;;;;;1.75;1.65;;;;;;;13.19;67.49;95234.78;7399835;19;20002;-58
2024/04/18 10:47:18;;;;;;;2.00;1.67;;;;;;;13.35;62.43;95248.53;7400055;19;20023;-56
2024/04/18 10:49:45;;;;;;;3.40;1.70;;;;;;;14.17;63.42;95240.22;7399607;19;19998;-60
2024/04/18 10:52:18;;;;;;;1.70;1.23;;;;;;;14.45;66.47;95240.81;7399502;19;19998;-56
2024/04/18 10:54:45;;;;;;;2.33;1.38;;;;;;;14.55;64.39;95238.31;7399870;19;20339;-58
2024/04/18 10:57:11;;;;;;;2.63;1.25;;;;;;;13.88;63.03;95241.41;7399076;19;20017;-58
2024/04/18 10:59:38;;;;;;;1.17;1.08;;;;;;;14.26;62.97;95235.13;7399668;19;20386;-60
2024/04/18 11:02:07;;;;;;;1.70;1.33;;;;;;;15.11;62.44;95242.91;7399574;19;20350;-57
2024/04/18 11:04:33;;;;;;;1.10;0.93;;;;;;;14.88;59.52;95248.16;7398421;19;20492;-63
2024/04/18 11:07:00;;;;;;;2.10;1.58;;;;;;;15.57;60.44;95245.56;7399490;19;20052;-61
2024/04/18 11:09:26;;;;;;;3.53;1.40;;;;;;;16.04;58.94;95249.78;7398951;19;20030;-60
2024/04/18 11:11:52;;;;;;;1.70;1.40;;;;;;;15.63;59.58;95242.41;7398934;19;19998;-54
2024/04/18 11:14:18;;;;;;;3.17;1.48;;;;;;;14.73;63.23;95234.31;7398735;19;20009;-58
2024/04/18 11:16:44;;;;;;;1.70;1.25;;;;;;;14.10;64.26;95238.03;7398769;19;20011;-58
2024/04/18 11:19:10;;;;;;;1.90;1.50;;;;;;;13.98;62.20;95254.69;7397013;19;19999;-63
2024/04/18 11:21:36;;;;;;;1.40;1.30;;;;;;;14.47;61.47;95250.25;7398532;19;20476;-59
2024/04/18 11:24:01;;;;;;;2.72;1.58;;;;;;;14.13;60.74;95239.59;7398410;19;19999;-57
2024/04/18 11:26:27;;;;;;;3.65;1.73;;;;;;;13.77;64.17;95237.75;7398735;19;19995;-56
2024/04/18 11:28:55;;;;;;;1.85;1.75;;;;;;;14.16;63.16;95239.38;7398774;19;20457;-55
2024/04/18 11:31:21;;;;;;;2.45;1.42;;;;;;;14.00;61.88;95243.13;7398758;19;20002;-55
2024/04/18 11:33:47;;;;;;;1.67;1.58;;;;;;;13.66;65.13;95248.16;7397711;19;20042;-57